Map

Track Data

SID SEASON NUMBER BASIN SUBBASIN NAME ISO_TIME NATURE LAT LON WMO_WIND WMO_PRES WMO_AGENCY TRACK_TYPE DIST2LAND LANDFALL IFLAG USA_AGENCY USA_ATCF_ID USA_LAT USA_LON USA_RECORD USA_STATUS USA_WIND USA_PRES USA_SSHS USA_R34_NE USA_R34_SE USA_R34_SW USA_R34_NW USA_R50_NE USA_R50_SE USA_R50_SW USA_R50_NW USA_R64_NE USA_R64_SE USA_R64_SW USA_R64_NW USA_POCI USA_ROCI USA_RMW USA_EYE TOKYO_LAT TOKYO_LON TOKYO_GRADE TOKYO_WIND TOKYO_PRES TOKYO_R50_DIR TOKYO_R50_LONG TOKYO_R50_SHORT TOKYO_R30_DIR TOKYO_R30_LONG TOKYO_R30_SHORT TOKYO_LAND CMA_LAT CMA_LON CMA_CAT CMA_WIND CMA_PRES HKO_LAT HKO_LON HKO_CAT HKO_WIND HKO_PRES NEWDELHI_LAT NEWDELHI_LON NEWDELHI_GRADE NEWDELHI_WIND NEWDELHI_PRES NEWDELHI_CI NEWDELHI_DP NEWDELHI_POCI REUNION_LAT REUNION_LON REUNION_TYPE REUNION_WIND REUNION_PRES REUNION_TNUM REUNION_CI REUNION_RMW REUNION_R34_NE REUNION_R34_SE REUNION_R34_SW REUNION_R34_NW REUNION_R50_NE REUNION_R50_SE REUNION_R50_SW REUNION_R50_NW REUNION_R64_NE REUNION_R64_SE REUNION_R64_SW REUNION_R64_NW BOM_LAT BOM_LON BOM_TYPE BOM_WIND BOM_PRES BOM_TNUM BOM_CI BOM_RMW BOM_R34_NE BOM_R34_SE BOM_R34_SW BOM_R34_NW BOM_R50_NE BOM_R50_SE BOM_R50_SW BOM_R50_NW BOM_R64_NE BOM_R64_SE BOM_R64_SW BOM_R64_NW BOM_ROCI BOM_POCI BOM_EYE BOM_POS_METHOD BOM_PRES_METHOD NADI_LAT NADI_LON NADI_CAT NADI_WIND NADI_PRES WELLINGTON_LAT WELLINGTON_LON WELLINGTON_WIND WELLINGTON_PRES DS824_LAT DS824_LON DS824_STAGE DS824_WIND DS824_PRES TD9636_LAT TD9636_LON TD9636_STAGE TD9636_WIND TD9636_PRES TD9635_LAT TD9635_LON TD9635_WIND TD9635_PRES TD9635_ROCI NEUMANN_LAT NEUMANN_LON NEUMANN_CLASS NEUMANN_WIND NEUMANN_PRES MLC_LAT MLC_LON MLC_CLASS MLC_WIND MLC_PRES USA_GUST BOM_GUST BOM_GUST_PER REUNION_GUST REUNION_GUST_PER USA_SEAHGT USA_SEARAD_NE USA_SEARAD_SE USA_SEARAD_SW USA_SEARAD_NW STORM_SPEED STORM_DIR
1936241N18274 1936 43 NA CS NOT_NAMED 1936-08-28 00:00:00 TS 18.1000 -86.2000 30 hurdat_atl main 167 107 O_____________ hurdat_atl AL111936 18.1000 -86.2000 TD 30 -1 12 299
1936241N18274 1936 43 NA CS NOT_NAMED 1936-08-28 03:00:00 TS 18.3954 -86.7597 main 97 38 P_____________ AL111936 18.3954 -86.7597 TD 35 0 12 300
1936241N18274 1936 43 NA CS NOT_NAMED 1936-08-28 06:00:00 TS 18.7000 -87.3000 40 hurdat_atl main 38 0 O_____________ hurdat_atl AL111936 18.7000 -87.3000 TS 40 0 12 302
1936241N18274 1936 43 NA NA NOT_NAMED 1936-08-28 09:00:00 TS 19.0148 -87.8076 main 0 0 P_____________ AL111936 19.0148 -87.8076 TS 37 0 11 302
1936241N18274 1936 43 NA NA NOT_NAMED 1936-08-28 12:00:00 TS 19.3000 -88.3000 35 hurdat_atl main 0 0 O_____________ hurdat_atl AL111936 19.3000 -88.3000 TS 35 0 11 298
1936241N18274 1936 43 NA NA NOT_NAMED 1936-08-28 15:00:00 TS 19.5073 -88.7929 main 0 0 P_____________ AL111936 19.5073 -88.7929 TS 32 -1 10 293
1936241N18274 1936 43 NA NA NOT_NAMED 1936-08-28 18:00:00 TS 19.7000 -89.3000 30 hurdat_atl main 0 0 O_____________ hurdat_atl AL111936 19.7000 -89.3000 TD 30 -1 11 294
1936241N18274 1936 43 NA NA NOT_NAMED 1936-08-28 21:00:00 TS 19.9348 -89.8352 main 0 0 P_____________ AL111936 19.9348 -89.8352 TD 30 -1 12 296
1936241N18274 1936 43 NA NA NOT_NAMED 1936-08-29 00:00:00 TS 20.2000 -90.4000 30 hurdat_atl main 0 0 O_____________ hurdat_atl AL111936 20.2000 -90.4000 TD 30 -1 12 297
1936241N18274 1936 43 NA GM NOT_NAMED 1936-08-29 03:00:00 TS 20.4923 -90.9852 main 52 52 P_____________ AL111936 20.4923 -90.9852 TD 35 0 13 298
1936241N18274 1936 43 NA GM NOT_NAMED 1936-08-29 06:00:00 TS 20.8000 -91.6000 40 hurdat_atl main 119 119 O_____________ hurdat_atl AL111936 20.8000 -91.6000 TS 40 0 13 298
1936241N18274 1936 43 NA GM NOT_NAMED 1936-08-29 09:00:00 TS 21.1299 -92.2498 main 188 188 P_____________ AL111936 21.1299 -92.2498 TS 45 0 14 296
1936241N18274 1936 43 NA GM NOT_NAMED 1936-08-29 12:00:00 TS 21.4000 -92.9000 50 hurdat_atl main 267 267 O_____________ hurdat_atl AL111936 21.4000 -92.9000 TS 50 0 13 289
1936241N18274 1936 43 NA GM NOT_NAMED 1936-08-29 15:00:00 TS 21.5448 -93.5228 main 330 305 P_____________ AL111936 21.5448 -93.5228 TS 55 0 11 280
1936241N18274 1936 43 NA GM NOT_NAMED 1936-08-29 18:00:00 TS 21.6000 -94.1000 60 hurdat_atl main 305 266 O_____________ hurdat_atl AL111936 21.6000 -94.1000 TS 60 0 10 275
1936241N18274 1936 43 NA GM NOT_NAMED 1936-08-29 21:00:00 TS 21.6298 -94.6225 main 266 227 P_____________ AL111936 21.6298 -94.6225 TS 65 1 9 270
1936241N18274 1936 43 NA GM NOT_NAMED 1936-08-30 00:00:00 TS 21.6000 -95.1000 70 hurdat_atl main 227 186 O_____________ hurdat_atl AL111936 21.6000 -95.1000 HU 70 1 9 263
1936241N18274 1936 43 NA GM NOT_NAMED 1936-08-30 03:00:00 TS 21.5298 -95.5574 main 176 136 P_____________ AL111936 21.5298 -95.5574 HU 70 1 9 257
1936241N18274 1936 43 NA GM NOT_NAMED 1936-08-30 06:00:00 TS 21.4000 -96.0000 70 hurdat_atl main 136 98 O_____________ hurdat_atl AL111936 21.4000 -96.0000 HU 70 1 9 250
1936241N18274 1936 43 NA GM NOT_NAMED 1936-08-30 09:00:00 TS 21.2224 -96.4575 main 89 43 P_____________ AL111936 21.2224 -96.4575 HU 70 1 9 245
1936241N18274 1936 43 NA GM NOT_NAMED 1936-08-30 12:00:00 TS 21.0000 -96.9000 70 hurdat_atl main 43 0 O_____________ hurdat_atl AL111936 21.0000 -96.9000 HU 70 1 9 240
1936241N18274 1936 43 NA NA NOT_NAMED 1936-08-30 15:00:00 TS 20.7574 -97.3074 main 0 0 P_____________ AL111936 20.7574 -97.3074 HU 57 0 9 236
1936241N18274 1936 43 NA NA NOT_NAMED 1936-08-30 18:00:00 TS 20.5000 -97.7000 45 hurdat_atl main 0 0 O_____________ hurdat_atl AL111936 20.5000 -97.7000 TS 45 0 9 235
1936241N18274 1936 43 NA NA NOT_NAMED 1936-08-30 21:00:00 TS 20.2477 -98.0977 main 0 0 P_____________ AL111936 20.2477 -98.0977 TS 37 0 9 236
1936241N18274 1936 43 NA NA NOT_NAMED 1936-08-31 00:00:00 TS 20.0000 -98.5000 30 hurdat_atl main 0 O_____________ hurdat_atl AL111936 20.0000 -98.5000 TD 30 -1 9 237

About IBTrACS Database

This database is a web-friendly format of International Best Track Archive for Climate Stewardship (IBTrACS), a global best track data archive curated by NOAA dating back to 1842.

Updated: 2021-12-06